Time;durP1;ratioP1;P1;durP2;ratioP2;P2;SDS_P1;SDS_P2;PMS_P1;PMS_P2;Temp;Humidity;BMP_temperature;BMP_pressure;BME280_temperature;BME280_humidity;BME280_pressure;Samples;Min_cycle;Max_cycle;Signal;HPM_P1;HPM_P2
2022/12/11 00:00:22;;;;;;;65.80;20.13;;;2.90;99.90;;;;;;5047062;28;20743;-34
2022/12/11 00:02:48;;;;;;;69.13;17.08;;;3.00;99.90;;;;;;5050550;28;20024;-39
2022/12/11 00:05:14;;;;;;;60.85;17.15;;;3.00;99.90;;;;;;5051729;28;20025;-36
2022/12/11 00:07:39;;;;;;;60.83;17.08;;;3.00;99.90;;;;;;5051485;28;20036;-36
2022/12/11 00:10:06;;;;;;;72.13;18.60;;;3.00;99.90;;;;;;5051483;28;20036;-48
2022/12/11 00:12:31;;;;;;;55.63;18.60;;;3.00;99.90;;;;;;5054355;28;20040;-41
2022/12/11 00:14:57;;;;;;;63.30;19.45;;;3.00;99.90;;;;;;5061802;28;20396;-45
2022/12/11 00:17:23;;;;;;;65.10;17.63;;;3.00;99.90;;;;;;5058960;28;20059;-43
2022/12/11 00:19:48;;;;;;;77.75;18.70;;;3.10;99.90;;;;;;5068528;28;20371;-48
2022/12/11 00:22:14;;;;;;;70.03;18.13;;;3.10;99.90;;;;;;5058319;28;20027;-43
2022/12/11 00:24:39;;;;;;;64.78;17.70;;;3.00;99.90;;;;;;5050849;28;20394;-43
2022/12/11 00:27:05;;;;;;;60.10;18.48;;;3.10;99.90;;;;;;5056129;28;21270;-43
2022/12/11 00:29:31;;;;;;;56.72;17.98;;;3.00;99.90;;;;;;5055339;28;20032;-43
2022/12/11 00:31:56;;;;;;;61.85;16.88;;;3.00;99.90;;;;;;5051362;28;20408;-46
2022/12/11 00:34:22;;;;;;;57.70;18.92;;;3.10;99.90;;;;;;5052656;28;20036;-43
2022/12/11 00:36:48;;;;;;;66.15;18.35;;;3.10;99.90;;;;;;5057016;28;20473;-42
2022/12/11 00:39:13;;;;;;;64.90;19.38;;;3.10;99.90;;;;;;5064183;28;20033;-45
2022/12/11 00:41:39;;;;;;;69.15;19.30;;;3.10;99.90;;;;;;5051990;28;20028;-42
2022/12/11 00:44:05;;;;;;;67.95;20.23;;;3.20;99.90;;;;;;5067916;28;20029;-47
2022/12/11 00:46:31;;;;;;;59.10;18.67;;;3.10;99.90;;;;;;5054131;28;20104;-40
2022/12/11 00:48:57;;;;;;;70.28;20.33;;;3.10;99.90;;;;;;5052149;28;20036;-42
2022/12/11 00:51:22;;;;;;;71.13;22.27;;;3.10;99.90;;;;;;5053325;28;20477;-40
2022/12/11 00:53:48;;;;;;;73.38;20.92;;;3.20;99.90;;;;;;5049765;28;20111;-43
2022/12/11 00:56:16;;;;;;;63.95;19.27;;;3.20;99.90;;;;;;5057652;28;20361;-43
2022/12/11 00:58:43;;;;;;;73.13;19.52;;;3.10;99.90;;;;;;5053081;28;20418;-43
2022/12/11 01:01:11;;;;;;;72.22;19.45;;;3.10;99.90;;;;;;5057559;28;20029;-40
2022/12/11 01:03:37;;;;;;;;;;;3.10;99.90;;;;;;5064910;28;20044;-46
2022/12/11 01:06:04;;;;;;;59.38;17.92;;;3.10;99.90;;;;;;5067312;28;20335;-44
2022/12/11 01:08:29;;;;;;;70.47;18.50;;;3.20;99.90;;;;;;5060752;28;20028;-45
2022/12/11 01:11:06;;;;;;;76.75;18.73;;;3.10;99.90;;;;;;5065297;28;20025;-38
2022/12/11 01:13:33;;;;;;;66.85;19.88;;;3.10;99.90;;;;;;5066480;28;20036;-33
2022/12/11 01:15:58;;;;;;;66.93;19.42;;;3.10;99.90;;;;;;5060084;28;20034;-32
2022/12/11 01:18:24;;;;;;;66.80;19.52;;;3.10;99.90;;;;;;5063718;28;20017;-52
2022/12/11 01:20:50;;;;;;;69.22;19.83;;;3.10;99.90;;;;;;5054151;28;20363;-35
2022/12/11 01:23:16;;;;;;;65.53;18.95;;;3.20;99.90;;;;;;5068096;28;20104;-32
2022/12/11 01:25:42;;;;;;;69.35;20.67;;;3.20;99.90;;;;;;5055667;28;20032;-43
2022/12/11 01:28:08;;;;;;;69.05;20.15;;;3.20;99.90;;;;;;5053859;28;20067;-43
2022/12/11 01:30:35;;;;;;;65.60;20.25;;;3.20;99.90;;;;;;5054127;28;20144;-45
2022/12/11 01:33:01;;;;;;;72.45;22.65;;;3.20;99.90;;;;;;5051464;28;20621;-45
2022/12/11 01:35:27;;;;;;;75.38;21.50;;;3.20;99.90;;;;;;5049678;28;20450;-42
2022/12/11 01:37:53;;;;;;;72.05;20.75;;;3.30;99.90;;;;;;5048699;28;20025;-40
2022/12/11 01:40:20;;;;;;;64.47;20.25;;;3.30;99.90;;;;;;5051212;28;20020;-45
2022/12/11 01:42:45;;;;;;;68.00;20.63;;;3.30;99.90;;;;;;5054969;28;20529;-46
2022/12/11 01:45:41;;;;;;;59.70;19.83;;;3.20;99.90;;;;;;5056599;28;20116;-37
2022/12/11 01:48:10;;;;;;;65.93;18.55;;;3.20;99.90;;;;;;5051637;28;20029;-39
2022/12/11 01:50:58;;;;;;;53.42;18.00;;;3.10;99.90;;;;;;5056222;28;20035;-36
2022/12/11 01:53:29;;;;;;;51.72;18.20;;;3.10;99.90;;;;;;5056195;28;20041;-40
2022/12/11 01:55:57;;;;;;;60.53;18.67;;;3.10;99.90;;;;;;5053131;28;20033;-39
2022/12/11 01:58:28;;;;;;;57.08;16.13;;;3.20;99.90;;;;;;5054751;28;20041;-34
2022/12/11 02:00:54;;;;;;;60.00;18.63;;;3.20;99.90;;;;;;5057719;28;20033;-33
2022/12/11 02:03:20;;;;;;;56.22;18.15;;;3.20;99.90;;;;;;5054751;28;20380;-42
2022/12/11 02:05:46;;;;;;;51.70;17.17;;;3.20;99.90;;;;;;5064515;28;20388;-38
2022/12/11 02:08:11;;;;;;;59.15;17.25;;;3.30;99.90;;;;;;5054505;28;20033;-37
2022/12/11 02:10:43;;;;;;;52.85;17.90;;;3.30;99.90;;;;;;5063338;28;20087;-36
2022/12/11 02:13:33;;;;;;;53.97;17.92;;;3.30;99.90;;;;;;5058538;28;20120;-38
2022/12/11 02:16:16;;;;;;;53.75;16.45;;;3.20;99.90;;;;;;5053573;28;20086;-44
2022/12/11 02:18:54;;;;;;;62.83;17.35;;;3.20;99.90;;;;;;5063623;28;20123;-43
2022/12/11 02:21:26;;;;;;;36.13;11.80;;;3.30;99.90;;;;;;5066140;28;20021;-42
2022/12/11 02:24:19;;;;;;;49.83;17.50;;;3.20;99.90;;;;;;5054998;28;20020;-43
2022/12/11 02:26:51;;;;;;;50.90;17.48;;;3.30;99.90;;;;;;5063772;28;20035;-47
2022/12/11 02:29:21;;;;;;;57.50;17.70;;;3.30;99.90;;;;;;5072923;28;20388;-41
2022/12/11 02:31:57;;;;;;;47.80;18.05;;;3.30;99.90;;;;;;5070904;28;20393;-44
2022/12/11 02:34:33;;;;;;;56.42;16.42;;;3.30;99.90;;;;;;5067188;28;20393;-42
2022/12/11 02:37:05;;;;;;;43.97;16.20;;;3.30;99.90;;;;;;5054713;28;20025;-35
2022/12/11 02:39:32;;;;;;;48.03;17.33;;;3.30;99.90;;;;;;5054656;28;20037;-36
2022/12/11 02:41:58;;;;;;;42.78;15.75;;;3.40;99.90;;;;;;5054550;28;20028;-39
2022/12/11 02:44:28;;;;;;;49.78;17.48;;;3.40;99.90;;;;;;5053808;28;20432;-42
2022/12/11 02:46:54;;;;;;;50.90;17.35;;;3.40;99.90;;;;;;5061222;28;20021;-37
2022/12/11 02:49:22;;;;;;;40.42;14.55;;;3.40;99.90;;;;;;5054375;28;20021;-33
2022/12/11 02:51:49;;;;;;;46.53;15.80;;;3.40;99.90;;;;;;5054405;28;20033;-37
2022/12/11 02:54:31;;;;;;;38.53;14.87;;;3.40;99.90;;;;;;5053847;28;20488;-37
2022/12/11 02:57:03;;;;;;;37.30;14.70;;;3.40;99.90;;;;;;5054264;28;20044;-38
2022/12/11 02:59:36;;;;;;;30.35;12.32;;;3.40;99.90;;;;;;5058306;28;20075;-45
2022/12/11 03:02:02;;;;;;;30.77;11.30;;;3.30;99.90;;;;;;5054755;28;20040;-51
2022/12/11 03:04:29;;;;;;;33.13;12.32;;;3.30;99.90;;;;;;5062809;28;20370;-42
2022/12/11 03:10:06;;;;;;;27.17;11.15;;;3.30;99.90;;;;;;5054451;28;20040;-44
2022/12/11 03:12:35;;;;;;;25.30;11.43;;;3.40;99.90;;;;;;5053891;28;20439;-43
2022/12/11 03:15:05;;;;;;;26.02;11.35;;;3.30;99.90;;;;;;5053616;28;20029;-41
2022/12/11 03:17:56;;;;;;;26.65;11.57;;;3.30;99.90;;;;;;5056349;28;20025;-42
2022/12/11 03:20:29;;;;;;;28.27;11.52;;;3.30;99.90;;;;;;5063229;28;20425;-43
2022/12/11 03:23:19;;;;;;;31.15;13.55;;;3.30;99.90;;;;;;5062961;28;20448;-36
2022/12/11 03:26:00;;;;;;;26.98;11.25;;;3.20;99.90;;;;;;5059145;28;20417;-37
2022/12/11 03:28:28;;;;;;;31.65;12.68;;;3.30;99.90;;;;;;5061449;28;20104;-35
2022/12/11 03:30:55;;;;;;;31.05;12.20;;;3.20;99.90;;;;;;5071786;28;20051;-36
2022/12/11 03:33:27;;;;;;;32.72;11.98;;;3.20;99.90;;;;;;5073500;28;20028;-38
2022/12/11 03:35:59;;;;;;;37.10;12.85;;;3.20;99.90;;;;;;5061741;28;20232;-35
2022/12/11 03:38:36;;;;;;;30.65;11.75;;;3.30;99.90;;;;;;5054039;28;20354;-33
2022/12/11 03:41:04;;;;;;;33.90;12.45;;;3.20;99.90;;;;;;5053520;28;20388;-35
2022/12/11 03:43:31;;;;;;;24.98;11.25;;;3.30;99.90;;;;;;5053628;28;20017;-35
2022/12/11 03:45:59;;;;;;;28.90;11.02;;;3.30;99.90;;;;;;5056714;28;20774;-32
2022/12/11 03:48:29;;;;;;;28.60;11.75;;;3.30;99.90;;;;;;5055707;28;20369;-34
2022/12/11 03:50:55;;;;;;;26.23;11.43;;;3.30;99.90;;;;;;5053370;28;20024;-35
2022/12/11 03:53:22;;;;;;;23.63;12.25;;;3.30;99.90;;;;;;5052799;28;20503;-41
2022/12/11 03:55:50;;;;;;;31.17;12.55;;;3.20;99.90;;;;;;5053689;28;20049;-37
2022/12/11 03:58:15;;;;;;;25.27;12.60;;;3.20;99.90;;;;;;5052011;28;20492;-40
2022/12/11 04:00:41;;;;;;;26.85;12.40;;;3.20;99.90;;;;;;5064544;28;20019;-35
2022/12/11 04:03:13;;;;;;;28.05;12.70;;;3.20;99.90;;;;;;5060433;28;20096;-33
2022/12/11 04:05:48;;;;;;;27.83;12.07;;;3.20;99.90;;;;;;5056423;28;20033;-35
2022/12/11 04:08:14;;;;;;;26.15;11.68;;;3.20;99.90;;;;;;5053000;28;20029;-36
2022/12/11 04:10:40;;;;;;;32.78;12.57;;;3.10;99.90;;;;;;5060856;28;20452;-38
2022/12/11 04:13:07;;;;;;;33.67;14.05;;;3.10;99.90;;;;;;5066363;28;20025;-33
2022/12/11 04:15:33;;;;;;;28.85;11.82;;;3.10;99.90;;;;;;5055392;28;20372;-36
2022/12/11 04:26:14;;;;;;;27.88;11.05;;;3.20;99.90;;;;;;5052531;28;20040;-43
2022/12/11 04:28:41;;;;;;;30.38;12.93;;;3.10;99.90;;;;;;5055839;28;20025;-42
2022/12/11 04:31:11;;;;;;;35.22;13.43;;;3.20;99.90;;;;;;5056635;28;20384;-43
2022/12/11 04:33:37;;;;;;;33.85;13.45;;;3.20;99.90;;;;;;5070066;28;20414;-42
2022/12/11 04:36:03;;;;;;;32.55;13.85;;;3.10;99.90;;;;;;5072944;28;20112;-43
2022/12/11 04:38:28;;;;;;;33.13;12.20;;;3.10;99.90;;;;;;5072684;28;20032;-46
2022/12/11 04:40:58;;;;;;;26.10;11.25;;;3.10;99.90;;;;;;5069689;28;20024;-43
2022/12/11 04:43:24;;;;;;;35.00;12.88;;;3.10;99.90;;;;;;5068917;28;20017;-44
2022/12/11 04:45:50;;;;;;;36.20;13.02;;;3.10;99.90;;;;;;5072315;28;20380;-42
2022/12/11 04:48:15;;;;;;;30.83;11.38;;;3.20;99.90;;;;;;5070305;28;20503;-44
2022/12/11 04:50:41;;;;;;;34.53;12.38;;;3.20;99.90;;;;;;5052321;28;20040;-44
2022/12/11 04:53:06;;;;;;;37.38;13.90;;;3.20;99.90;;;;;;5053708;28;20099;-43
2022/12/11 04:55:32;;;;;;;30.58;12.43;;;3.20;99.90;;;;;;5052482;28;20460;-48
2022/12/11 04:57:57;;;;;;;37.95;13.45;;;3.10;99.90;;;;;;5051954;28;20049;-41
2022/12/11 05:00:23;;;;;;;30.48;12.75;;;3.20;99.90;;;;;;5050964;28;20076;-46
2022/12/11 05:02:49;;;;;;;31.83;12.75;;;3.10;99.90;;;;;;5052597;28;20014;-44
2022/12/11 05:05:14;;;;;;;27.70;12.98;;;3.10;99.90;;;;;;5052757;28;20100;-53
2022/12/11 05:07:40;;;;;;;27.13;12.75;;;3.10;99.90;;;;;;5052407;28;20068;-37
2022/12/11 05:10:07;;;;;;;32.42;12.52;;;3.10;99.90;;;;;;5052595;28;20492;-39
2022/12/11 05:12:32;;;;;;;32.28;13.15;;;3.20;99.90;;;;;;5052327;28;20029;-31
2022/12/11 05:14:58;;;;;;;30.15;13.05;;;3.20;99.90;;;;;;5066046;28;20025;-34
2022/12/11 05:17:23;;;;;;;30.85;12.60;;;3.10;99.90;;;;;;5072369;28;20027;-35
2022/12/11 05:19:50;;;;;;;32.08;13.43;;;3.10;99.90;;;;;;5065533;28;20020;-41
2022/12/11 05:22:17;;;;;;;32.20;13.13;;;3.10;99.90;;;;;;5070366;28;20078;-36
2022/12/11 05:24:43;;;;;;;31.40;12.43;;;3.10;99.90;;;;;;5075919;28;20029;-35
2022/12/11 05:27:09;;;;;;;33.95;13.60;;;3.10;99.90;;;;;;5075920;28;20497;-37
2022/12/11 05:29:34;;;;;;;28.00;11.98;;;3.10;99.90;;;;;;5074574;28;20090;-37
2022/12/11 05:32:00;;;;;;;33.33;12.38;;;3.20;99.90;;;;;;5074141;28;20020;-35
2022/12/11 05:37:10;;;;;;;29.52;11.05;;;3.10;99.90;;;;;;5075250;28;20083;-38
2022/12/11 05:39:37;;;;;;;33.60;12.85;;;3.10;99.90;;;;;;5075822;28;20426;-37
2022/12/11 05:42:03;;;;;;;26.05;11.05;;;3.10;99.90;;;;;;5066839;28;20013;-32
2022/12/11 05:44:29;;;;;;;33.50;12.27;;;3.10;99.90;;;;;;5061195;28;20025;-37
2022/12/11 05:46:54;;;;;;;34.80;13.00;;;3.10;99.90;;;;;;5074144;28;20096;-35
2022/12/11 05:49:20;;;;;;;28.30;12.70;;;3.10;99.90;;;;;;5060428;28;20065;-34
2022/12/11 05:51:46;;;;;;;36.63;12.65;;;3.10;99.90;;;;;;5073289;28;20052;-36
2022/12/11 05:54:12;;;;;;;30.00;11.32;;;3.00;99.90;;;;;;5062210;28;20514;-41
2022/12/11 05:56:37;;;;;;;25.00;11.95;;;3.10;99.90;;;;;;5072183;28;20037;-34
2022/12/11 05:59:05;;;;;;;32.40;12.80;;;3.00;99.90;;;;;;5056843;28;20491;-35
2022/12/11 06:01:37;;;;;;;28.15;12.35;;;3.10;99.90;;;;;;5073081;28;20486;-38
2022/12/11 06:04:04;;;;;;;34.35;11.95;;;3.00;99.90;;;;;;5062194;28;20074;-36
2022/12/11 06:06:30;;;;;;;28.08;12.23;;;3.00;99.90;;;;;;5063627;28;20031;-35
2022/12/11 06:08:57;;;;;;;32.45;11.88;;;3.00;99.90;;;;;;5066406;28;20025;-33
2022/12/11 06:11:23;;;;;;;30.77;13.90;;;3.00;99.90;;;;;;5053384;28;20036;-32
2022/12/11 06:13:49;;;;;;;33.55;13.30;;;3.00;99.90;;;;;;5056482;28;20028;-62
2022/12/11 06:16:15;;;;;;;33.00;12.70;;;3.00;99.90;;;;;;5052300;28;20396;-35
2022/12/11 06:18:43;;;;;;;33.40;12.00;;;3.00;99.90;;;;;;5066278;28;20071;-33
2022/12/11 06:21:17;;;;;;;32.13;13.38;;;3.00;99.90;;;;;;5056807;28;20040;-38
2022/12/11 06:23:44;;;;;;;31.65;11.40;;;3.00;99.90;;;;;;5059439;28;20368;-43
2022/12/11 06:26:10;;;;;;;26.17;11.02;;;3.10;99.90;;;;;;5054856;28;20513;-37
2022/12/11 06:28:36;;;;;;;30.13;12.63;;;3.10;99.90;;;;;;5060366;28;20431;-44
2022/12/11 06:31:03;;;;;;;29.65;12.00;;;3.10;99.90;;;;;;5056613;28;20033;-43
2022/12/11 06:33:29;;;;;;;30.35;12.95;;;3.00;99.90;;;;;;5070544;28;20020;-42
2022/12/11 06:35:55;;;;;;;34.60;12.50;;;3.00;99.90;;;;;;5062970;28;20064;-44
2022/12/11 06:38:21;;;;;;;32.53;12.73;;;3.00;99.90;;;;;;5053721;28;20013;-41
2022/12/11 06:40:54;;;;;;;27.70;12.00;;;2.90;99.90;;;;;;5074664;28;20100;-44
2022/12/11 06:43:20;;;;;;;22.13;9.63;;;3.00;99.90;;;;;;5070471;28;20535;-45
2022/12/11 06:46:04;;;;;;;26.95;11.25;;;3.00;99.90;;;;;;5070759;28;20028;-44
2022/12/11 06:48:30;;;;;;;31.88;11.88;;;3.00;99.90;;;;;;5070245;28;20035;-46
2022/12/11 06:50:56;;;;;;;28.42;12.35;;;3.00;99.90;;;;;;5055520;28;20104;-43
2022/12/11 06:53:22;;;;;;;30.77;11.38;;;3.00;99.90;;;;;;5055055;28;20044;-43
2022/12/11 06:55:47;;;;;;;32.95;12.77;;;3.00;99.90;;;;;;5074305;28;20024;-42
2022/12/11 06:58:13;;;;;;;32.03;13.40;;;3.00;99.90;;;;;;5071036;28;20076;-40
2022/12/11 07:00:39;;;;;;;32.97;13.15;;;2.90;99.90;;;;;;5056196;28;20025;-44
2022/12/11 07:03:05;;;;;;;31.55;12.80;;;2.90;99.90;;;;;;5063075;28;20064;-45
2022/12/11 07:05:31;;;;;;;34.88;12.55;;;2.90;99.90;;;;;;5053613;28;20477;-43
2022/12/11 07:07:57;;;;;;;37.25;12.80;;;2.90;99.90;;;;;;5069508;28;20760;-42
2022/12/11 07:10:23;;;;;;;34.05;12.88;;;2.90;99.90;;;;;;5053051;28;20032;-42
2022/12/11 07:12:51;;;;;;;32.95;13.95;;;2.90;99.90;;;;;;5067452;28;20086;-46
2022/12/11 07:15:16;;;;;;;37.17;13.35;;;2.90;99.90;;;;;;5067749;28;20494;-42
2022/12/11 07:17:42;;;;;;;41.67;13.43;;;2.80;99.90;;;;;;5071886;28;20017;-43
2022/12/11 07:20:08;;;;;;;34.40;12.77;;;2.80;99.90;;;;;;5064676;28;20029;-44
2022/12/11 07:22:34;;;;;;;37.22;13.40;;;2.80;99.90;;;;;;5060052;28;20477;-46
2022/12/11 07:24:59;;;;;;;32.42;12.55;;;2.80;99.90;;;;;;5071382;28;20108;-44
2022/12/11 07:27:25;;;;;;;25.90;11.55;;;2.90;99.90;;;;;;5069462;28;20017;-44
2022/12/11 07:29:54;;;;;;;33.33;12.75;;;2.90;99.90;;;;;;5053942;28;20061;-45
2022/12/11 07:32:20;;;;;;;32.10;12.60;;;2.90;99.90;;;;;;5053460;28;20029;-40
2022/12/11 07:34:47;;;;;;;28.33;11.88;;;2.80;99.90;;;;;;5072716;28;20024;-44
2022/12/11 07:37:13;;;;;;;31.40;11.77;;;2.90;99.90;;;;;;5072690;28;20025;-42
2022/12/11 07:39:38;;;;;;;29.23;11.43;;;2.90;99.90;;;;;;5073193;28;20031;-37
2022/12/11 07:42:04;;;;;;;32.15;11.88;;;2.90;99.90;;;;;;5073402;28;20020;-38
2022/12/11 07:44:29;;;;;;;33.05;12.25;;;2.90;99.90;;;;;;5071579;28;20028;-35
2022/12/11 07:46:55;;;;;;;28.08;11.65;;;2.90;99.90;;;;;;5073267;28;20025;-38
2022/12/11 07:49:21;;;;;;;31.25;12.07;;;2.90;99.90;;;;;;5071579;28;20040;-35
2022/12/11 07:51:46;;;;;;;27.27;11.02;;;2.90;99.90;;;;;;5073220;28;20499;-37
2022/12/11 07:54:15;;;;;;;29.23;11.32;;;2.80;99.90;;;;;;5072588;28;20033;-38
2022/12/11 07:56:48;;;;;;;31.98;12.10;;;2.90;99.90;;;;;;5071542;28;20049;-34
2022/12/11 07:59:15;;;;;;;26.42;11.65;;;2.90;99.90;;;;;;5060882;28;20048;-37
2022/12/11 08:01:42;;;;;;;31.83;12.05;;;2.90;99.90;;;;;;5055335;28;20031;-37
2022/12/11 08:04:10;;;;;;;30.40;10.98;;;2.90;99.90;;;;;;5069585;28;20037;-37
2022/12/11 08:06:38;;;;;;;29.25;11.27;;;2.90;99.90;;;;;;5058915;28;20109;-38
2022/12/11 08:09:06;;;;;;;29.08;10.93;;;2.90;99.90;;;;;;5070917;28;20480;-44
2022/12/11 08:11:32;;;;;;;25.42;12.38;;;2.90;99.90;;;;;;5055747;28;20035;-33
2022/12/11 08:14:17;;;;;;;27.35;12.27;;;2.80;99.90;;;;;;5063551;28;20035;-36
2022/12/11 08:16:43;;;;;;;31.88;12.32;;;2.80;99.90;;;;;;5064521;28;20032;-32
2022/12/11 08:19:12;;;;;;;29.73;11.45;;;2.80;99.90;;;;;;5068767;28;20115;-36
2022/12/11 08:21:39;;;;;;;24.60;11.35;;;2.80;99.90;;;;;;5071562;28;20031;-36
2022/12/11 08:24:05;;;;;;;27.02;10.52;;;2.80;99.90;;;;;;5072795;28;20023;-34
2022/12/11 08:26:31;;;;;;;30.40;11.73;;;2.90;99.90;;;;;;5068465;28;20503;-33
2022/12/11 08:28:58;;;;;;;25.65;11.20;;;2.90;99.90;;;;;;5068274;28;20029;-33
2022/12/11 08:31:24;;;;;;;28.17;11.02;;;2.90;99.90;;;;;;5071112;28;20056;-56
2022/12/11 08:33:50;;;;;;;30.38;12.95;;;2.80;99.90;;;;;;5071104;28;20041;-36
2022/12/11 08:36:20;;;;;;;28.17;12.27;;;2.80;99.90;;;;;;5071435;28;20413;-38
2022/12/11 08:39:04;;;;;;;30.05;12.13;;;2.80;99.90;;;;;;5063340;28;20473;-34
2022/12/11 08:41:30;;;;;;;21.70;10.25;;;2.90;99.90;;;;;;5052001;28;20025;-38
2022/12/11 08:43:57;;;;;;;26.50;11.18;;;2.90;99.90;;;;;;5053301;28;20103;-34
2022/12/11 08:46:25;;;;;;;24.95;10.65;;;2.90;99.90;;;;;;5052885;28;20477;-42
2022/12/11 08:48:51;;;;;;;27.70;11.90;;;3.00;99.90;;;;;;5044211;28;20075;-49
2022/12/11 08:51:19;;;;;;;24.05;10.88;;;3.10;99.90;;;;;;5053893;28;20366;-44
2022/12/11 08:53:45;;;;;;;30.10;11.68;;;3.10;99.90;;;;;;5056673;28;20104;-42
2022/12/11 08:56:14;;;;;;;23.50;10.65;;;3.10;99.90;;;;;;5056675;28;20108;-43
2022/12/11 08:58:39;;;;;;;21.48;10.07;;;3.10;99.90;;;;;;5062606;28;20476;-35
2022/12/11 09:01:11;;;;;;;26.60;11.75;;;3.10;99.90;;;;;;5071255;28;20036;-36
2022/12/11 09:03:38;;;;;;;24.95;11.00;;;3.10;99.90;;;;;;5060061;28;20116;-36
2022/12/11 09:06:13;;;;;;;25.67;12.27;;;3.10;99.90;;;;;;5056681;28;20028;-43
2022/12/11 09:08:39;;;;;;;26.17;12.35;;;3.20;99.90;;;;;;5056408;28;20031;-42
2022/12/11 09:11:27;;;;;;;24.63;10.73;;;3.20;99.90;;;;;;5075677;28;20017;-44
2022/12/11 09:13:53;;;;;;;29.63;12.27;;;3.20;99.90;;;;;;5074339;28;20113;-43
2022/12/11 09:16:21;;;;;;;26.70;11.77;;;3.20;99.90;;;;;;5076134;28;20507;-41
2022/12/11 09:18:49;;;;;;;27.23;12.07;;;3.20;99.90;;;;;;5064933;28;20082;-45
2022/12/11 09:21:16;;;;;;;32.72;13.00;;;3.20;99.90;;;;;;5066031;28;20499;-36
2022/12/11 09:23:42;;;;;;;32.45;13.35;;;3.20;99.90;;;;;;5073077;28;20024;-35
2022/12/11 09:26:11;;;;;;;29.75;12.38;;;3.30;99.90;;;;;;5067871;28;20392;-34
2022/12/11 09:28:38;;;;;;;33.70;14.13;;;3.20;99.90;;;;;;5074241;28;20099;-34
2022/12/11 09:31:15;;;;;;;34.15;13.35;;;3.30;99.90;;;;;;5067328;28;20029;-35
2022/12/11 09:33:41;;;;;;;29.75;13.68;;;3.30;99.90;;;;;;5066325;28;20500;-36
2022/12/11 09:36:07;;;;;;;32.38;13.98;;;3.30;99.90;;;;;;5060766;28;20067;-38
2022/12/11 09:38:35;;;;;;;31.95;13.10;;;3.30;99.90;;;;;;5060582;28;20380;-32
2022/12/11 09:41:01;;;;;;;33.05;12.55;;;3.30;99.90;;;;;;5073468;28;20043;-41
2022/12/11 09:43:37;;;;;;;28.45;13.57;;;3.30;99.90;;;;;;5058557;28;20028;-34
2022/12/11 09:46:08;;;;;;;32.90;12.50;;;3.30;99.90;;;;;;5072856;28;20037;-39
2022/12/11 09:48:34;;;;;;;38.33;14.18;;;3.30;99.90;;;;;;5073797;28;20024;-33
2022/12/11 09:51:11;;;;;;;32.05;12.98;;;3.30;99.90;;;;;;5075532;28;20020;-39
2022/12/11 09:53:37;;;;;;;30.83;13.25;;;3.30;99.90;;;;;;5072373;28;20028;-32
2022/12/11 09:56:14;;;;;;;29.98;11.95;;;3.40;99.90;;;;;;5054951;28;20036;-43
2022/12/11 09:58:57;;;;;;;35.00;13.20;;;3.50;99.90;;;;;;5057689;28;20056;-37
2022/12/11 10:01:49;;;;;;;31.95;13.18;;;3.60;99.90;;;;;;5065659;28;20027;-37
2022/12/11 10:04:24;;;;;;;26.00;11.68;;;3.60;99.90;;;;;;5056939;28;20485;-42
2022/12/11 10:07:08;;;;;;;32.58;13.13;;;3.60;99.90;;;;;;5065296;28;20017;-48
2022/12/11 10:10:06;;;;;;;32.45;12.25;;;3.50;99.90;;;;;;5063840;28;20112;-46
2022/12/11 10:12:56;;;;;;;35.58;14.68;;;3.60;99.90;;;;;;5057332;28;20104;-43
2022/12/11 10:15:41;;;;;;;32.72;12.48;;;3.60;99.90;;;;;;5071301;28;20412;-44
2022/12/11 10:18:21;;;;;;;25.23;11.30;;;3.60;99.90;;;;;;5062154;28;20066;-43
2022/12/11 10:20:49;;;;;;;24.20;10.73;;;3.60;99.90;;;;;;5067065;28;20107;-42
2022/12/11 10:23:20;;;;;;;25.85;10.30;;;3.60;99.90;;;;;;5059883;28;20056;-36
2022/12/11 10:26:09;;;;;;;26.10;10.70;;;3.60;99.90;;;;;;5066008;28;20550;-35
2022/12/11 10:28:34;;;;;;;30.08;11.90;;;3.60;99.90;;;;;;5060396;28;20024;-39
2022/12/11 10:31:17;;;;;;;25.85;10.68;;;3.60;99.90;;;;;;5061335;28;20549;-35
2022/12/11 10:34:02;;;;;;;27.52;10.75;;;3.70;99.90;;;;;;5065151;28;20052;-33
2022/12/11 10:36:34;;;;;;;33.08;11.00;;;3.70;99.90;;;;;;5061077;28;20029;-35
2022/12/11 10:39:01;;;;;;;23.88;10.60;;;3.80;99.90;;;;;;5073017;28;20025;-38
2022/12/11 10:41:38;;;;;;;20.80;10.13;;;3.80;99.90;;;;;;5074598;28;20453;-32
2022/12/11 10:44:16;;;;;;;21.63;10.23;;;3.80;99.90;;;;;;5055136;28;20381;-37
2022/12/11 10:46:42;;;;;;;;;;;3.80;99.90;;;;;;5054751;28;20500;-34
2022/12/11 10:49:41;;;;;;;26.27;9.40;;;3.90;99.90;;;;;;5054010;28;20251;-31
2022/12/11 10:52:25;;;;;;;24.38;10.00;;;3.90;99.90;;;;;;5064915;28;20488;-40
2022/12/11 10:54:58;;;;;;;27.42;10.05;;;4.00;99.90;;;;;;5062056;28;20115;-35
2022/12/11 10:57:35;;;;;;;27.10;10.55;;;4.00;99.90;;;;;;5072429;28;20516;-33
2022/12/11 11:00:07;;;;;;;25.13;10.52;;;4.00;99.90;;;;;;5057264;28;20566;-31
2022/12/11 11:02:39;;;;;;;28.88;10.48;;;4.10;99.90;;;;;;5058728;28;20023;-31
2022/12/11 11:05:25;;;;;;;21.77;9.93;;;4.00;99.90;;;;;;5054742;28;20465;-38
2022/12/11 11:08:24;;;;;;;19.73;8.93;;;4.00;99.90;;;;;;5071167;28;20511;-36
2022/12/11 11:11:00;;;;;;;25.85;9.60;;;4.00;99.90;;;;;;5060808;28;20039;-36
2022/12/11 11:13:29;;;;;;;22.75;9.82;;;4.00;99.90;;;;;;5053867;28;20025;-31
2022/12/11 11:16:04;;;;;;;22.27;8.95;;;4.00;99.90;;;;;;5053100;28;21078;-31
2022/12/11 11:18:31;;;;;;;20.17;9.68;;;4.00;99.90;;;;;;5066137;28;20563;-31
2022/12/11 11:20:57;;;;;;;19.83;9.57;;;4.00;99.90;;;;;;5068243;28;20021;-31
2022/12/11 11:23:24;;;;;;;23.00;10.00;;;4.00;99.90;;;;;;5062493;28;20078;-31
2022/12/11 11:25:53;;;;;;;22.70;9.13;;;4.00;99.90;;;;;;5072137;28;20063;-31
2022/12/11 11:28:28;;;;;;;26.20;9.65;;;4.00;99.90;;;;;;5073682;28;20107;-31
2022/12/11 11:31:04;;;;;;;21.80;10.18;;;3.90;99.90;;;;;;5069611;28;20074;-31
2022/12/11 11:33:33;;;;;;;23.20;10.93;;;4.00;99.90;;;;;;5057317;28;20033;-31
2022/12/11 11:36:06;;;;;;;18.77;9.18;;;4.00;99.90;;;;;;5057769;28;20461;-31
2022/12/11 11:38:44;;;;;;;23.17;10.35;;;4.00;99.90;;;;;;5064530;28;20484;-31
2022/12/11 11:41:20;;;;;;;23.30;11.32;;;4.00;99.90;;;;;;5062145;28;20541;-36
2022/12/11 11:43:50;;;;;;;22.75;9.55;;;4.10;99.90;;;;;;5061063;28;20028;-34
2022/12/11 11:46:22;;;;;;;27.70;11.63;;;4.10;99.90;;;;;;5049821;28;20028;-44
2022/12/11 11:49:14;;;;;;;25.95;10.98;;;4.10;99.90;;;;;;5060057;28;20032;-37
2022/12/11 11:51:53;;;;;;;26.25;11.32;;;4.10;99.90;;;;;;5073067;28;20438;-38
2022/12/11 11:54:38;;;;;;;24.50;10.13;;;4.10;99.90;;;;;;5066539;28;20028;-39
2022/12/11 11:57:25;;;;;;;26.20;11.18;;;4.00;99.90;;;;;;5067206;28;20040;-36
2022/12/11 12:00:08;;;;;;;24.58;9.45;;;3.90;99.90;;;;;;5064174;28;20500;-35
2022/12/11 12:02:34;;;;;;;26.02;9.95;;;3.90;99.90;;;;;;5061671;28;20020;-44
2022/12/11 12:05:01;;;;;;;29.48;11.45;;;4.00;99.90;;;;;;5056818;28;20028;-37
2022/12/11 12:07:38;;;;;;;24.85;10.77;;;4.00;99.90;;;;;;5055581;28;20029;-36
2022/12/11 12:10:20;;;;;;;28.17;11.68;;;4.00;99.90;;;;;;5066711;28;20536;-40
2022/12/11 12:13:25;;;;;;;37.60;12.63;;;4.00;99.90;;;;;;5060869;28;20021;-35
2022/12/11 12:15:59;;;;;;;27.60;11.27;;;4.00;99.90;;;;;;5067665;28;20048;-40
2022/12/11 12:18:33;;;;;;;36.20;10.98;;;4.00;99.90;;;;;;5063348;28;20025;-51
2022/12/11 12:21:11;;;;;;;29.55;10.95;;;4.00;99.90;;;;;;5062745;28;20024;-59
2022/12/11 12:24:07;;;;;;;28.08;10.50;;;4.00;99.90;;;;;;5057718;28;20469;-46
2022/12/11 12:26:36;;;;;;;46.95;18.08;;;4.00;99.90;;;;;;5058039;28;20021;-46
2022/12/11 12:29:13;;;;;;;30.85;11.43;;;4.00;99.90;;;;;;5062593;28;20029;-46
2022/12/11 12:31:38;;;;;;;35.13;11.33;;;4.10;99.90;;;;;;5071028;28;20021;-41
2022/12/11 12:34:29;;;;;;;35.80;11.43;;;4.10;99.90;;;;;;5054534;28;20081;-45
2022/12/11 12:37:31;;;;;;;28.17;11.77;;;4.00;99.90;;;;;;5053096;28;20026;-43
2022/12/11 12:40:22;;;;;;;50.65;20.30;;;4.00;99.90;;;;;;5052996;28;20071;-42
2022/12/11 12:43:05;;;;;;;27.05;12.80;;;3.90;99.90;;;;;;5055914;28;20032;-47
2022/12/11 12:45:50;;;;;;;35.47;12.95;;;4.00;99.90;;;;;;5065654;28;20064;-44
2022/12/11 12:48:16;;;;;;;33.42;12.35;;;4.00;99.90;;;;;;5062659;28;20021;-69
2022/12/11 12:50:48;;;;;;;37.00;12.73;;;3.90;99.90;;;;;;5067386;28;20488;-45
2022/12/11 12:53:20;;;;;;;37.67;12.60;;;4.00;99.90;;;;;;5061707;28;20099;-44
2022/12/11 12:55:47;;;;;;;39.15;14.20;;;3.90;99.90;;;;;;5054041;28;20640;-42
2022/12/11 12:58:34;;;;;;;37.10;13.48;;;3.80;99.90;;;;;;5049050;28;20067;-44
2022/12/11 13:01:12;;;;;;;31.05;11.93;;;3.80;99.90;;;;;;5071480;28;20043;-71
2022/12/11 13:04:00;;;;;;;36.13;14.68;;;3.80;99.90;;;;;;5057892;28;20116;-44
2022/12/11 13:06:35;;;;;;;33.30;11.50;;;3.80;99.90;;;;;;5049366;28;20717;-41
2022/12/11 13:09:26;;;;;;;42.03;14.18;;;3.80;99.90;;;;;;5059794;28;20033;-44